createdAt,value
2022-07-25T00:01:01.241Z,17.69
2022-07-25T00:02:02.898Z,17.74
2022-07-25T00:03:05.209Z,17.75
2022-07-25T00:04:12.148Z,17.72
2022-07-25T00:05:14.061Z,17.75
2022-07-25T00:06:18.015Z,17.75
2022-07-25T00:07:19.575Z,17.72
2022-07-25T00:08:21.089Z,17.72
2022-07-25T00:09:22.573Z,17.69
2022-07-25T00:10:24.404Z,17.65
2022-07-25T00:11:25.896Z,17.65
2022-07-25T00:12:27.369Z,17.64
2022-07-25T00:13:28.852Z,17.68
2022-07-25T00:14:30.307Z,17.63
2022-07-25T00:15:31.931Z,17.59
2022-07-25T00:16:33.839Z,17.54
2022-07-25T00:17:35.372Z,17.51
2022-07-25T00:18:36.875Z,17.45
2022-07-25T00:19:39.497Z,17.42
2022-07-25T00:20:41.007Z,17.40
2022-07-25T00:21:42.546Z,17.45
2022-07-25T00:22:44.046Z,17.46
2022-07-25T00:23:45.574Z,17.48
2022-07-25T00:24:47.043Z,17.51
2022-07-25T00:25:48.539Z,17.52
2022-07-25T00:26:50.139Z,17.52
2022-07-25T00:27:51.986Z,17.51
2022-07-25T00:28:53.630Z,17.49
2022-07-25T00:29:55.197Z,17.53
2022-07-25T00:30:56.744Z,17.54
2022-07-25T00:31:58.318Z,17.60
2022-07-25T00:32:59.781Z,17.60
2022-07-25T00:34:01.691Z,17.58
2022-07-25T00:35:03.679Z,17.61
2022-07-25T00:36:06.009Z,17.56
2022-07-25T00:37:07.496Z,17.54
2022-07-25T00:38:08.970Z,17.55
2022-07-25T00:39:10.445Z,17.56
2022-07-25T00:40:12.306Z,17.60
2022-07-25T00:41:13.993Z,17.64
2022-07-25T00:42:15.515Z,17.69
2022-07-25T00:43:16.999Z,17.76
2022-07-25T00:44:25.701Z,17.80
2022-07-25T00:45:27.279Z,17.82
2022-07-25T00:46:28.866Z,17.81
2022-07-25T00:47:30.421Z,17.77
2022-07-25T00:48:31.991Z,17.75
2022-07-25T00:49:33.696Z,17.75
2022-07-25T00:50:36.092Z,17.72
2022-07-25T00:51:37.581Z,17.70
2022-07-25T00:52:39.130Z,17.76
2022-07-25T00:53:40.580Z,17.73
2022-07-25T00:54:42.141Z,17.71
2022-07-25T00:55:43.825Z,17.72
2022-07-25T00:56:45.696Z,17.72
2022-07-25T00:57:47.175Z,17.74
2022-07-25T00:58:48.656Z,17.72
2022-07-25T00:59:50.232Z,17.66
2022-07-25T01:00:51.730Z,17.61
2022-07-25T01:01:53.662Z,17.58
2022-07-25T01:02:55.539Z,17.56
2022-07-25T01:03:57.069Z,17.51
2022-07-25T01:04:59.607Z,17.48
2022-07-25T01:06:01.106Z,17.42
2022-07-25T01:07:02.852Z,17.44
2022-07-25T01:08:04.781Z,17.41
2022-07-25T01:09:07.433Z,17.41
2022-07-25T01:10:09.442Z,17.41
2022-07-25T01:11:11.232Z,17.42
2022-07-25T01:12:12.722Z,17.30
2022-07-25T01:13:15.322Z,17.21
2022-07-25T01:14:16.835Z,17.16
2022-07-25T01:15:19.744Z,17.10
2022-07-25T01:16:21.352Z,17.03
2022-07-25T01:17:23.022Z,17.01
2022-07-25T01:18:24.485Z,17.00
2022-07-25T01:19:25.985Z,17.07
2022-07-25T01:20:29.399Z,17.08
2022-07-25T01:21:30.892Z,16.99
2022-07-25T01:22:32.358Z,16.98
2022-07-25T01:23:33.865Z,16.98
2022-07-25T01:24:35.822Z,16.98
2022-07-25T01:25:37.348Z,16.99
2022-07-25T01:26:38.903Z,16.97
2022-07-25T01:27:41.834Z,16.98
2022-07-25T01:28:43.312Z,17.00
2022-07-25T01:29:44.794Z,17.03
2022-07-25T01:30:46.342Z,17.07
2022-07-25T01:31:48.077Z,17.11
2022-07-25T01:32:49.616Z,17.06
2022-07-25T01:33:51.120Z,17.04
2022-07-25T01:34:52.610Z,17.01
2022-07-25T01:35:54.106Z,17.03
2022-07-25T01:36:55.590Z,17.07
2022-07-25T01:37:57.150Z,17.03
2022-07-25T01:38:58.634Z,17.02
2022-07-25T01:40:00.407Z,17.00
2022-07-25T01:41:01.858Z,16.97
2022-07-25T01:42:03.510Z,16.94
2022-07-25T01:43:05.125Z,16.92
2022-07-25T01:44:06.866Z,16.88
2022-07-25T01:45:09.817Z,16.80
2022-07-25T01:46:11.382Z,16.83
2022-07-25T01:47:12.887Z,16.81
2022-07-25T01:48:14.420Z,16.81
2022-07-25T01:49:15.926Z,16.81
2022-07-25T01:50:17.695Z,16.84
2022-07-25T01:51:20.436Z,16.82
2022-07-25T01:52:22.059Z,16.80
2022-07-25T01:53:23.630Z,16.77
2022-07-25T01:54:26.216Z,16.72
2022-07-25T01:55:27.736Z,16.71
2022-07-25T01:56:31.816Z,16.73
2022-07-25T01:57:33.972Z,16.73
2022-07-25T01:58:37.665Z,16.68
2022-07-25T01:59:40.660Z,16.64
2022-07-25T02:00:42.413Z,16.58
2022-07-25T02:01:44.162Z,16.58
2022-07-25T02:02:46.252Z,16.57
2022-07-25T02:03:47.719Z,16.56
2022-07-25T02:04:49.281Z,16.56
2022-07-25T02:05:50.746Z,16.58
2022-07-25T02:06:52.201Z,16.58
2022-07-25T02:07:53.662Z,16.58
2022-07-25T02:08:55.203Z,16.52
2022-07-25T02:09:57.080Z,16.52
2022-07-25T02:10:59.500Z,16.51
2022-07-25T02:12:01.057Z,16.55
2022-07-25T02:13:02.593Z,16.58
2022-07-25T02:14:04.581Z,16.54
2022-07-25T02:15:06.973Z,16.57
2022-07-25T02:16:08.497Z,16.53
2022-07-25T02:17:10.056Z,16.52
2022-07-25T02:18:11.927Z,16.46
2022-07-25T02:19:13.631Z,16.40
2022-07-25T02:20:15.110Z,16.38
2022-07-25T02:21:16.622Z,16.33
2022-07-25T02:22:18.122Z,16.32
2022-07-25T02:23:19.616Z,16.34
2022-07-25T02:24:21.093Z,16.36
2022-07-25T02:25:22.610Z,16.34
2022-07-25T02:26:24.205Z,16.25
2022-07-25T02:27:25.675Z,16.19
2022-07-25T02:28:27.220Z,16.20
2022-07-25T02:29:28.722Z,16.16
2022-07-25T02:30:30.220Z,16.13
2022-07-25T02:31:31.745Z,16.10
2022-07-25T02:32:33.258Z,16.08
2022-07-25T02:33:35.075Z,16.11
2022-07-25T02:34:36.567Z,16.16
2022-07-25T02:35:38.081Z,16.16
2022-07-25T02:36:39.607Z,16.21
2022-07-25T02:37:41.317Z,16.20
2022-07-25T02:38:42.919Z,16.15
2022-07-25T02:39:44.435Z,16.10
2022-07-25T02:40:47.736Z,16.08
2022-07-25T02:41:49.215Z,16.10
2022-07-25T02:42:50.703Z,16.14
2022-07-25T02:43:52.189Z,16.20
2022-07-25T02:44:53.694Z,16.18
2022-07-25T02:45:55.247Z,16.20
2022-07-25T02:46:56.741Z,16.23
2022-07-25T02:47:58.240Z,16.24
2022-07-25T02:48:59.946Z,16.20
2022-07-25T02:50:01.489Z,16.19
2022-07-25T02:51:03.175Z,16.17
2022-07-25T02:52:04.964Z,16.12
2022-07-25T02:53:06.522Z,16.13
2022-07-25T02:54:08.017Z,16.16
2022-07-25T02:55:10.156Z,16.19
2022-07-25T02:56:11.781Z,16.24
2022-07-25T02:57:15.668Z,16.29
2022-07-25T02:58:17.139Z,16.34
2022-07-25T02:59:18.903Z,16.37
2022-07-25T03:00:20.399Z,16.36
2022-07-25T03:01:21.927Z,16.36
2022-07-25T03:02:23.443Z,16.36
2022-07-25T03:03:24.903Z,16.34
2022-07-25T03:04:27.089Z,16.30
2022-07-25T03:05:28.976Z,16.25
2022-07-25T03:06:30.469Z,16.20
2022-07-25T03:07:31.943Z,16.19
2022-07-25T03:08:33.446Z,16.13
2022-07-25T03:09:34.902Z,16.07
2022-07-25T03:10:36.451Z,16.05
2022-07-25T03:11:38.062Z,16.04
2022-07-25T03:12:40.785Z,16.00
2022-07-25T03:13:42.409Z,15.94
2022-07-25T03:14:44.096Z,15.92
2022-07-25T03:15:45.635Z,15.91
2022-07-25T03:16:47.173Z,15.91
2022-07-25T03:17:48.667Z,15.94
2022-07-25T03:18:50.189Z,15.95
2022-07-25T03:19:51.868Z,15.98
2022-07-25T03:20:53.465Z,16.02
2022-07-25T03:21:54.925Z,16.04
2022-07-25T03:22:56.373Z,16.05
2022-07-25T03:23:57.841Z,16.05
2022-07-25T03:24:59.635Z,16.08
2022-07-25T03:26:01.180Z,16.09
2022-07-25T03:27:02.706Z,16.08
2022-07-25T03:28:04.359Z,16.08
2022-07-25T03:29:06.021Z,16.11
2022-07-25T03:30:08.360Z,16.12
2022-07-25T03:31:09.881Z,16.11
2022-07-25T03:32:11.585Z,16.07
2022-07-25T03:33:13.130Z,16.07
2022-07-25T03:34:14.613Z,16.08
2022-07-25T03:35:16.189Z,16.11
2022-07-25T03:36:17.666Z,16.11
2022-07-25T03:37:19.127Z,16.11
2022-07-25T03:38:20.601Z,16.12
2022-07-25T03:39:22.292Z,16.16
2022-07-25T03:40:23.765Z,16.15
2022-07-25T03:41:27.784Z,16.12
2022-07-25T03:42:34.971Z,16.15
2022-07-25T03:43:37.405Z,16.18
2022-07-25T03:44:39.090Z,16.16
2022-07-25T03:45:40.663Z,16.18
2022-07-25T03:46:42.207Z,16.24
2022-07-25T03:47:43.679Z,16.22
2022-07-25T03:48:45.234Z,16.25
2022-07-25T03:49:46.804Z,16.27
2022-07-25T03:50:48.276Z,16.29
2022-07-25T03:51:50.158Z,16.36
2022-07-25T03:52:51.648Z,16.38
2022-07-25T03:53:53.120Z,16.37
2022-07-25T03:54:54.576Z,16.32
2022-07-25T03:55:56.058Z,16.31
2022-07-25T03:56:57.596Z,16.24
2022-07-25T03:57:59.102Z,16.27
2022-07-25T03:59:00.562Z,16.28
2022-07-25T04:00:02.522Z,16.28
2022-07-25T04:01:07.355Z,16.29
2022-07-25T04:02:12.243Z,16.33
2022-07-25T04:03:13.826Z,16.34
2022-07-25T04:04:15.360Z,16.35
2022-07-25T04:05:16.880Z,16.32
2022-07-25T04:06:18.467Z,16.30
2022-07-25T04:07:19.954Z,16.35
2022-07-25T04:08:21.422Z,16.39
2022-07-25T04:09:22.960Z,16.36
2022-07-25T04:10:24.493Z,16.36
2022-07-25T04:11:25.993Z,16.33
2022-07-25T04:12:27.711Z,16.34
2022-07-25T04:13:29.276Z,16.43
2022-07-25T04:14:30.796Z,16.54
2022-07-25T04:15:32.248Z,16.58
2022-07-25T04:16:35.335Z,16.61
2022-07-25T04:17:39.606Z,16.65
2022-07-25T04:18:42.121Z,16.67
2022-07-25T04:19:45.252Z,16.67
2022-07-25T04:20:46.709Z,16.68
2022-07-25T04:21:48.208Z,16.74
2022-07-25T04:22:49.660Z,16.77
2022-07-25T04:23:51.237Z,16.82
2022-07-25T04:24:52.747Z,16.86
2022-07-25T04:25:55.015Z,16.89
2022-07-25T04:26:56.551Z,16.89
2022-07-25T04:27:58.009Z,16.92
2022-07-25T04:28:59.658Z,16.96
2022-07-25T04:30:01.123Z,17.01
2022-07-25T04:31:02.591Z,17.07
2022-07-25T04:32:04.653Z,17.05
2022-07-25T04:33:06.291Z,16.98
2022-07-25T04:34:08.235Z,16.97
2022-07-25T04:35:09.990Z,16.99
2022-07-25T04:36:11.534Z,16.98
2022-07-25T04:37:13.001Z,16.97
2022-07-25T04:38:14.496Z,16.97
2022-07-25T04:39:15.943Z,16.94
2022-07-25T04:40:17.478Z,16.98
2022-07-25T04:41:19.344Z,17.02
2022-07-25T04:42:20.819Z,17.04
2022-07-25T04:43:22.409Z,17.09
2022-07-25T04:44:23.902Z,17.09
2022-07-25T04:45:25.582Z,17.09
2022-07-25T04:46:27.128Z,17.10
2022-07-25T04:47:28.588Z,17.12
2022-07-25T04:48:30.134Z,17.12
2022-07-25T04:49:31.665Z,17.14
2022-07-25T04:50:33.278Z,17.15
2022-07-25T04:51:34.732Z,17.16
2022-07-25T04:52:36.228Z,17.21
2022-07-25T04:53:37.693Z,17.27
2022-07-25T04:54:39.163Z,17.28
2022-07-25T04:55:40.666Z,17.30
2022-07-25T04:56:42.141Z,17.33
2022-07-25T04:57:43.663Z,17.33
2022-07-25T04:58:45.148Z,17.38
2022-07-25T04:59:46.691Z,17.47
2022-07-25T05:00:48.340Z,17.52
2022-07-25T05:01:49.919Z,17.60
2022-07-25T05:02:51.585Z,17.64
2022-07-25T05:03:53.024Z,17.72
2022-07-25T05:04:54.482Z,17.75
2022-07-25T05:05:55.971Z,17.77
2022-07-25T05:06:57.437Z,17.81
2022-07-25T05:07:59.803Z,17.83
2022-07-25T05:09:01.291Z,17.91
2022-07-25T05:10:04.342Z,17.97
2022-07-25T05:11:06.018Z,18.01
2022-07-25T05:12:07.802Z,17.91
2022-07-25T05:13:09.812Z,17.84
2022-07-25T05:14:11.285Z,17.87
2022-07-25T05:15:13.195Z,17.89
2022-07-25T05:16:14.709Z,17.89
2022-07-25T05:17:16.282Z,17.85
2022-07-25T05:18:17.782Z,17.88
2022-07-25T05:19:19.225Z,17.91
2022-07-25T05:20:20.941Z,17.82
2022-07-25T05:21:22.484Z,17.82
2022-07-25T05:22:28.526Z,17.96
2022-07-25T05:23:30.605Z,17.95
2022-07-25T05:24:36.520Z,17.87
2022-07-25T05:25:37.977Z,17.89
2022-07-25T05:26:39.489Z,17.94
2022-07-25T05:27:41.514Z,18.04
2022-07-25T05:28:42.982Z,18.06
2022-07-25T05:29:44.449Z,18.18
2022-07-25T05:30:45.924Z,18.20
2022-07-25T05:31:47.534Z,18.32
2022-07-25T05:32:49.035Z,18.31
2022-07-25T05:33:50.819Z,18.38
2022-07-25T05:34:52.314Z,18.52
2022-07-25T05:35:53.864Z,18.64
2022-07-25T05:36:55.329Z,18.80
2022-07-25T05:37:56.812Z,18.98
2022-07-25T05:38:58.672Z,19.14
2022-07-25T05:40:00.327Z,19.25
2022-07-25T05:41:01.787Z,19.36
2022-07-25T05:42:03.519Z,19.52
2022-07-25T05:43:04.968Z,19.73
2022-07-25T05:44:06.810Z,19.79
2022-07-25T05:45:08.930Z,19.88
2022-07-25T05:46:10.411Z,20.04
2022-07-25T05:47:12.386Z,20.28
2022-07-25T05:48:15.142Z,20.44
2022-07-25T05:49:16.700Z,20.57
2022-07-25T05:50:18.217Z,20.47
2022-07-25T05:51:19.670Z,20.58
2022-07-25T05:52:21.307Z,20.77
2022-07-25T05:53:22.844Z,20.91
2022-07-25T05:54:24.343Z,21.09
2022-07-25T05:55:29.026Z,21.19
2022-07-25T05:56:30.526Z,21.28
2022-07-25T05:57:31.996Z,21.39
2022-07-25T05:58:33.497Z,21.53
2022-07-25T05:59:35.031Z,21.56
2022-07-25T06:00:37.467Z,21.65
2022-07-25T06:01:39.012Z,21.70
2022-07-25T06:02:40.626Z,21.80
2022-07-25T06:03:42.366Z,21.88
2022-07-25T06:04:43.862Z,22.01
2022-07-25T06:05:46.397Z,22.09
2022-07-25T06:06:47.894Z,22.13
2022-07-25T06:07:49.386Z,22.14
2022-07-25T06:08:50.869Z,22.16
2022-07-25T06:09:53.244Z,22.07
2022-07-25T06:10:54.820Z,22.08
2022-07-25T06:12:00.272Z,22.08
2022-07-25T06:13:02.534Z,22.20
2022-07-25T06:14:04.313Z,22.21
2022-07-25T06:15:12.464Z,22.33
2022-07-25T06:16:24.184Z,22.36
2022-07-25T06:17:30.517Z,22.39
2022-07-25T06:18:34.165Z,22.43
2022-07-25T06:19:35.665Z,22.55
2022-07-25T06:20:37.154Z,22.63
2022-07-25T06:21:38.649Z,22.72
2022-07-25T06:22:40.855Z,22.80
2022-07-25T06:23:42.368Z,22.91
2022-07-25T06:24:43.817Z,23.03
2022-07-25T06:25:50.299Z,23.15
2022-07-25T06:26:52.148Z,23.23
2022-07-25T06:27:53.651Z,23.32
2022-07-25T06:28:55.256Z,23.35
2022-07-25T06:29:56.728Z,23.48
2022-07-25T06:30:58.253Z,23.55
2022-07-25T06:31:59.965Z,23.62
2022-07-25T06:33:01.506Z,23.73
2022-07-25T06:34:03.291Z,23.63
2022-07-25T06:35:05.363Z,23.62
2022-07-25T06:36:07.220Z,23.68
2022-07-25T06:37:08.685Z,23.75
2022-07-25T06:38:10.267Z,23.77
2022-07-25T06:39:11.756Z,23.79
2022-07-25T06:40:13.461Z,23.88
2022-07-25T06:41:15.315Z,23.96
2022-07-25T06:42:16.925Z,24.02
2022-07-25T06:43:18.484Z,24.10
2022-07-25T06:44:19.982Z,24.21
2022-07-25T06:45:21.780Z,24.34
2022-07-25T06:46:23.346Z,24.32
2022-07-25T06:47:24.906Z,24.45
2022-07-25T06:48:26.434Z,24.53
2022-07-25T06:49:28.149Z,24.64
2022-07-25T06:50:29.768Z,24.69
2022-07-25T06:51:31.277Z,24.70
2022-07-25T06:52:32.779Z,24.77
2022-07-25T06:53:34.254Z,24.84
2022-07-25T06:54:35.764Z,24.99
2022-07-25T06:55:37.413Z,25.10
2022-07-25T06:56:38.891Z,25.03
2022-07-25T06:57:41.725Z,25.11
2022-07-25T06:58:43.183Z,25.19
2022-07-25T06:59:44.700Z,25.31
2022-07-25T07:00:46.689Z,25.42
2022-07-25T07:01:51.429Z,25.47
2022-07-25T07:02:56.375Z,25.56
2022-07-25T07:03:59.614Z,25.57
2022-07-25T07:05:01.126Z,25.58
2022-07-25T07:06:02.591Z,25.51
2022-07-25T07:07:04.294Z,25.61
2022-07-25T07:08:06.034Z,25.75
2022-07-25T07:09:07.608Z,25.92
2022-07-25T07:10:09.359Z,26.00
2022-07-25T07:11:10.892Z,25.90
2022-07-25T07:12:12.389Z,25.86
2022-07-25T07:13:14.872Z,25.92
2022-07-25T07:14:16.419Z,26.00
2022-07-25T07:15:17.870Z,26.03
2022-07-25T07:16:19.377Z,26.12
2022-07-25T07:17:20.954Z,26.21
2022-07-25T07:18:22.637Z,26.28
2022-07-25T07:19:24.087Z,26.33
2022-07-25T07:20:25.790Z,26.42
2022-07-25T07:21:27.280Z,26.42
2022-07-25T07:22:30.741Z,26.27
2022-07-25T07:23:32.210Z,26.35
2022-07-25T07:24:35.083Z,26.44
2022-07-25T07:25:40.528Z,26.47
2022-07-25T07:26:44.836Z,26.39
2022-07-25T07:27:46.860Z,26.37
2022-07-25T07:28:48.342Z,26.46
2022-07-25T07:29:50.577Z,26.54
2022-07-25T07:31:15.790Z,26.47
2022-07-25T07:32:14.021Z,26.52
2022-07-25T07:33:15.597Z,26.56
2022-07-25T07:34:17.133Z,26.61
2022-07-25T07:35:18.727Z,26.67
2022-07-25T07:36:21.565Z,26.68
2022-07-25T07:37:23.029Z,26.69
2022-07-25T07:38:25.225Z,26.75
2022-07-25T07:39:26.696Z,26.73
2022-07-25T07:40:28.242Z,26.70
2022-07-25T07:41:29.725Z,26.73
2022-07-25T07:42:38.947Z,26.82
2022-07-25T07:43:40.765Z,26.85
2022-07-25T07:44:42.233Z,26.94
2022-07-25T07:45:44.242Z,26.93
2022-07-25T07:46:45.809Z,26.91
2022-07-25T07:47:48.994Z,26.85
2022-07-25T07:48:50.486Z,26.79
2022-07-25T07:49:52.023Z,26.82
2022-07-25T07:50:53.555Z,26.88
2022-07-25T07:51:55.079Z,26.89
2022-07-25T07:52:57.074Z,27.05
2022-07-25T07:53:58.648Z,27.19
2022-07-25T07:55:00.138Z,27.20
2022-07-25T07:56:01.963Z,27.26
2022-07-25T07:57:03.475Z,27.34
2022-07-25T07:58:05.371Z,27.34
2022-07-25T07:59:07.228Z,27.46
2022-07-25T08:00:13.510Z,27.49
2022-07-25T08:01:17.829Z,27.48
2022-07-25T08:02:19.463Z,27.57
2022-07-25T08:03:21.594Z,27.72
2022-07-25T08:04:23.107Z,27.78
2022-07-25T08:05:27.161Z,27.81
2022-07-25T08:06:28.633Z,27.92
2022-07-25T08:07:30.156Z,27.97
2022-07-25T08:08:31.865Z,28.05
2022-07-25T08:09:33.372Z,28.15
2022-07-25T08:10:37.693Z,28.30
2022-07-25T08:11:39.226Z,28.32
2022-07-25T08:12:41.545Z,28.14
2022-07-25T08:13:43.054Z,27.94
2022-07-25T08:14:44.560Z,27.95
2022-07-25T08:15:48.796Z,27.98
2022-07-25T08:16:50.303Z,27.98
2022-07-25T08:17:52.782Z,28.06
2022-07-25T08:18:54.274Z,28.14
2022-07-25T08:20:02.019Z,28.21
2022-07-25T08:21:10.900Z,28.19
2022-07-25T08:22:12.415Z,28.26
2022-07-25T08:23:14.333Z,28.33
2022-07-25T08:24:15.825Z,28.42
2022-07-25T08:25:20.120Z,28.59
2022-07-25T08:26:21.642Z,28.57
2022-07-25T08:27:23.195Z,28.59
2022-07-25T08:28:24.698Z,28.56
2022-07-25T08:29:28.205Z,28.56
2022-07-25T08:30:29.931Z,28.50
2022-07-25T08:31:31.570Z,28.56
2022-07-25T08:32:33.600Z,28.65
2022-07-25T08:33:35.063Z,28.56
2022-07-25T08:34:36.515Z,28.58
2022-07-25T08:35:38.044Z,28.66
2022-07-25T08:36:39.492Z,28.65
2022-07-25T08:37:40.988Z,28.63
2022-07-25T08:38:42.489Z,28.63
2022-07-25T08:39:43.982Z,28.73
2022-07-25T08:40:45.855Z,28.68
2022-07-25T08:41:47.439Z,28.66
2022-07-25T08:42:49.511Z,28.61
2022-07-25T08:43:51.934Z,28.72
2022-07-25T08:44:59.786Z,28.80
2022-07-25T08:46:02.489Z,28.78
2022-07-25T08:47:04.742Z,28.79
2022-07-25T08:48:11.368Z,28.85
2022-07-25T08:49:12.999Z,28.89
2022-07-25T08:50:17.020Z,28.89
2022-07-25T08:51:18.939Z,28.87
2022-07-25T08:52:20.971Z,28.95
2022-07-25T08:53:38.146Z,28.92
2022-07-25T08:54:40.301Z,28.73
2022-07-25T08:55:41.903Z,28.71
2022-07-25T08:56:43.360Z,28.71
2022-07-25T08:57:45.070Z,28.74
2022-07-25T08:58:46.648Z,28.67
2022-07-25T08:59:48.128Z,28.81
2022-07-25T09:00:49.705Z,28.97
2022-07-25T09:01:51.259Z,29.07
2022-07-25T09:03:03.663Z,29.24
2022-07-25T09:04:08.570Z,29.38
2022-07-25T09:05:10.278Z,29.46
2022-07-25T09:06:20.293Z,29.46
2022-07-25T09:07:40.892Z,29.54
2022-07-25T09:08:52.738Z,29.56
2022-07-25T09:09:54.179Z,29.72
2022-07-25T09:10:55.732Z,29.77
2022-07-25T09:11:57.307Z,29.75
2022-07-25T09:13:07.882Z,29.72
2022-07-25T09:14:12.930Z,29.65
2022-07-25T09:15:30.512Z,29.56
2022-07-25T09:16:40.927Z,29.58
2022-07-25T09:17:50.618Z,29.56
2022-07-25T09:18:52.079Z,29.63
2022-07-25T09:19:56.569Z,29.61
2022-07-25T09:20:59.709Z,29.53
2022-07-25T09:22:06.991Z,29.52
2022-07-25T09:23:13.725Z,29.47
2022-07-25T09:24:17.345Z,29.44
2022-07-25T09:25:27.219Z,29.61
2022-07-25T09:26:28.734Z,29.79
2022-07-25T09:27:33.133Z,29.92
2022-07-25T09:28:41.339Z,30.10
2022-07-25T09:29:43.259Z,30.17
2022-07-25T09:30:59.553Z,30.29
2022-07-25T09:32:13.198Z,30.46
2022-07-25T09:33:14.705Z,30.53
2022-07-25T09:34:38.330Z,30.56
2022-07-25T09:35:39.792Z,30.50
2022-07-25T09:36:55.070Z,30.46
2022-07-25T09:38:07.585Z,30.32
2022-07-25T09:39:09.069Z,30.22
2022-07-25T09:40:14.612Z,30.05
2022-07-25T09:41:16.174Z,30.09
2022-07-25T09:42:18.971Z,30.24
2022-07-25T09:43:20.556Z,30.37
2022-07-25T09:44:22.320Z,30.42
2022-07-25T09:45:26.069Z,30.43
2022-07-25T09:46:32.403Z,30.58
2022-07-25T09:47:36.522Z,30.62
2022-07-25T09:48:40.234Z,30.63
2022-07-25T09:49:45.491Z,30.49
2022-07-25T09:50:47.427Z,30.42
2022-07-25T09:51:49.020Z,30.33
2022-07-25T09:52:53.186Z,30.32
2022-07-25T09:53:55.060Z,30.43
2022-07-25T09:54:56.575Z,30.60
2022-07-25T09:55:58.192Z,30.76
2022-07-25T09:56:59.754Z,30.84
2022-07-25T09:58:01.261Z,30.92
2022-07-25T09:59:04.040Z,30.90
2022-07-25T10:00:07.562Z,30.99
2022-07-25T10:01:20.302Z,31.19
2022-07-25T10:02:39.323Z,31.24
2022-07-25T10:04:20.952Z,31.14
2022-07-25T10:05:38.154Z,31.02
2022-07-25T10:06:49.119Z,31.03
2022-07-25T10:07:54.078Z,30.98
2022-07-25T10:08:56.630Z,30.95
2022-07-25T10:09:59.654Z,30.98
2022-07-25T10:11:01.165Z,30.97
2022-07-25T10:12:08.401Z,31.12
2022-07-25T10:13:14.713Z,31.29
2022-07-25T10:14:16.330Z,31.46
2022-07-25T10:15:17.871Z,31.57
2022-07-25T10:16:25.054Z,31.62
2022-07-25T10:17:26.631Z,31.70
2022-07-25T10:18:29.875Z,31.85
2022-07-25T10:19:44.794Z,31.93
2022-07-25T10:20:54.654Z,31.97
2022-07-25T10:21:56.136Z,31.84
2022-07-25T10:22:58.350Z,31.90
2022-07-25T10:24:03.605Z,32.01
2022-07-25T10:25:12.181Z,32.06
2022-07-25T10:26:15.675Z,32.08
2022-07-25T10:27:24.617Z,32.18
2022-07-25T10:28:36.694Z,32.04
2022-07-25T10:29:40.006Z,31.89
2022-07-25T10:30:42.536Z,31.71
2022-07-25T10:31:49.927Z,31.59
2022-07-25T10:32:58.001Z,31.59
2022-07-25T10:34:02.963Z,31.63
2022-07-25T10:35:17.312Z,31.75
2022-07-25T10:36:20.040Z,31.88
2022-07-25T10:37:27.746Z,31.86
2022-07-25T10:38:29.203Z,31.78
2022-07-25T10:39:38.177Z,31.66
2022-07-25T10:40:42.621Z,31.57
2022-07-25T10:41:51.698Z,31.63
2022-07-25T10:43:05.920Z,31.61
2022-07-25T10:44:15.598Z,31.76
2022-07-25T10:45:17.986Z,31.92
2022-07-25T10:46:20.995Z,32.13
2022-07-25T10:47:26.068Z,32.15
2022-07-25T10:48:30.958Z,32.14
2022-07-25T10:49:37.445Z,32.37
2022-07-25T10:51:00.157Z,32.42
2022-07-25T10:52:03.853Z,32.34
2022-07-25T10:53:05.335Z,32.12
2022-07-25T10:54:17.482Z,32.02
2022-07-25T10:55:23.156Z,32.01
2022-07-25T10:56:28.433Z,32.12
2022-07-25T10:57:32.137Z,32.08
2022-07-25T10:58:47.887Z,32.03
2022-07-25T10:59:49.517Z,31.98
2022-07-25T11:00:51.208Z,32.05
2022-07-25T11:01:53.621Z,31.95
2022-07-25T11:02:58.030Z,32.00
2022-07-25T11:04:04.325Z,32.12
2022-07-25T11:05:06.300Z,32.21
2022-07-25T11:06:07.870Z,32.17
2022-07-25T11:07:13.731Z,32.16
2022-07-25T11:08:22.893Z,32.16
2022-07-25T11:09:28.507Z,32.25
2022-07-25T11:10:30.218Z,32.33
2022-07-25T11:11:39.885Z,32.24
2022-07-25T11:12:44.873Z,32.24
2022-07-25T11:13:46.408Z,32.16
2022-07-25T11:14:47.920Z,32.24
2022-07-25T11:15:49.880Z,32.43
2022-07-25T11:16:53.528Z,32.55
2022-07-25T11:17:55.053Z,32.64
2022-07-25T11:18:56.637Z,32.75
2022-07-25T11:19:59.875Z,32.88
2022-07-25T11:21:06.291Z,32.83
2022-07-25T11:22:08.942Z,32.79
2022-07-25T11:23:10.437Z,32.73
2022-07-25T11:24:12.033Z,32.72
2022-07-25T11:25:13.985Z,32.78
2022-07-25T11:26:15.484Z,32.86
2022-07-25T11:27:28.077Z,32.80
2022-07-25T11:29:01.778Z,32.85
2022-07-25T11:30:11.775Z,32.95
2022-07-25T11:31:15.072Z,32.80
2022-07-25T11:32:16.880Z,32.67
2022-07-25T11:33:18.588Z,32.76
2022-07-25T11:34:23.368Z,32.83
2022-07-25T11:35:27.645Z,32.97
2022-07-25T11:36:29.862Z,32.94
2022-07-25T11:37:35.452Z,32.76
2022-07-25T11:38:38.821Z,32.62
2022-07-25T11:39:42.816Z,32.59
2022-07-25T11:40:44.447Z,32.53
2022-07-25T11:41:46.072Z,32.43
2022-07-25T11:42:51.050Z,32.42
2022-07-25T11:43:52.509Z,32.48
2022-07-25T11:44:54.248Z,32.58
2022-07-25T11:46:05.050Z,32.55
2022-07-25T11:47:09.928Z,32.50
2022-07-25T11:48:13.480Z,32.54
2022-07-25T11:49:15.160Z,32.49
2022-07-25T11:50:16.917Z,32.41
2022-07-25T11:51:19.546Z,32.58
2022-07-25T11:52:28.718Z,32.69
2022-07-25T11:53:39.681Z,32.71
2022-07-25T11:54:52.568Z,32.64
2022-07-25T11:55:54.226Z,32.68
2022-07-25T11:56:55.715Z,32.75
2022-07-25T11:58:01.477Z,32.87
2022-07-25T11:59:03.117Z,32.92
2022-07-25T12:00:10.453Z,32.75
2022-07-25T12:01:14.436Z,32.74
2022-07-25T12:02:29.744Z,32.77
2022-07-25T12:03:37.917Z,32.86
2022-07-25T12:04:39.471Z,32.70
2022-07-25T12:05:41.379Z,32.57
2022-07-25T12:06:45.928Z,32.50
2022-07-25T12:07:52.737Z,32.46
2022-07-25T12:08:54.251Z,32.37
2022-07-25T12:09:57.216Z,32.47
2022-07-25T12:10:58.719Z,32.58
2022-07-25T12:12:04.186Z,32.56
2022-07-25T12:13:06.698Z,32.58
2022-07-25T12:14:08.512Z,32.49
2022-07-25T12:15:11.714Z,32.45
2022-07-25T12:16:13.424Z,32.55
2022-07-25T12:17:15.265Z,32.60
2022-07-25T12:18:16.792Z,32.65
2022-07-25T12:19:20.412Z,32.78
2022-07-25T12:20:28.451Z,32.90
2022-07-25T12:21:29.990Z,32.86
2022-07-25T12:22:31.579Z,32.76
2022-07-25T12:23:33.398Z,32.70
2022-07-25T12:24:34.860Z,32.71
2022-07-25T12:25:38.759Z,32.74
2022-07-25T12:26:40.306Z,32.55
2022-07-25T12:27:42.136Z,32.51
2022-07-25T12:28:43.784Z,32.49
2022-07-25T12:29:45.302Z,32.48
2022-07-25T12:30:50.554Z,32.57
2022-07-25T12:31:55.943Z,32.69
2022-07-25T12:32:58.734Z,32.78
2022-07-25T12:34:00.231Z,32.89
2022-07-25T12:35:02.386Z,32.94
2022-07-25T12:36:08.448Z,32.84
2022-07-25T12:37:10.230Z,32.92
2022-07-25T12:38:12.009Z,32.97
2022-07-25T12:39:13.525Z,33.05
2022-07-25T12:40:16.126Z,33.11
2022-07-25T12:41:18.195Z,33.14
2022-07-25T12:42:20.263Z,33.17
2022-07-25T12:43:22.191Z,33.13
2022-07-25T12:44:23.746Z,33.15
2022-07-25T12:45:25.990Z,33.12
2022-07-25T12:46:27.546Z,33.15
2022-07-25T12:47:29.125Z,33.03
2022-07-25T12:48:30.631Z,32.99
2022-07-25T12:49:32.193Z,32.96
2022-07-25T12:50:33.640Z,33.04
2022-07-25T12:51:35.167Z,33.08
2022-07-25T12:52:37.037Z,33.11
2022-07-25T12:53:42.179Z,33.03
2022-07-25T12:54:44.338Z,32.96
2022-07-25T12:55:45.867Z,32.97
2022-07-25T12:56:47.501Z,32.92
2022-07-25T12:57:49.527Z,32.87
2022-07-25T12:58:51.034Z,32.82
2022-07-25T12:59:52.561Z,32.78
2022-07-25T13:00:58.079Z,32.85
2022-07-25T13:02:02.684Z,32.79
2022-07-25T13:03:04.340Z,32.85
2022-07-25T13:04:05.888Z,32.98
2022-07-25T13:05:07.838Z,33.11
2022-07-25T13:06:09.345Z,33.12
2022-07-25T13:07:12.466Z,33.20
2022-07-25T13:08:13.999Z,33.29
2022-07-25T13:09:15.533Z,33.41
2022-07-25T13:10:17.970Z,33.46
2022-07-25T13:11:19.477Z,33.46
2022-07-25T13:12:21.200Z,33.47
2022-07-25T13:13:22.823Z,33.44
2022-07-25T13:14:25.539Z,33.42
2022-07-25T13:15:27.034Z,33.47
2022-07-25T13:16:28.782Z,33.34
2022-07-25T13:17:32.345Z,33.35
2022-07-25T13:18:33.903Z,33.09
2022-07-25T13:19:35.445Z,32.87
2022-07-25T13:20:36.929Z,32.78
2022-07-25T13:21:38.714Z,32.73
2022-07-25T13:22:40.220Z,32.76
2022-07-25T13:23:42.004Z,32.82
2022-07-25T13:24:43.573Z,32.97
2022-07-25T13:25:45.100Z,33.10
2022-07-25T13:26:46.697Z,33.25
2022-07-25T13:27:48.585Z,33.25
2022-07-25T13:28:50.240Z,33.21
2022-07-25T13:29:51.826Z,33.31
2022-07-25T13:30:53.296Z,33.37